METAR UND TAF INFORMATION
LTFM 221220Z 05010KT 010V100 9999 SCT040 19/09 Q1022 NOSIG RMK RWY17L 07011KT RWY34L 05011KT 010V080 RWY16R 06011KT 020V080

 FLUGHAFENKARTE

 RUNWAY INFORMATION

 AIRPORT FREQUENCIES

 AIRPORT NEAR NAVIGATION AIDS